Airfield :
LOGIN :

Register | Disclaimer

   EN    FR    IT 

 










Legend :    VFR   Marginal VFR   IFR   Intensive IFR   Very Intensive IFR
Visi :
Ceiling :
>= 8 km
>= 3000ft
5 to 8 km
1000 to 3000 ft
1500m to 5 km
500 to 1000 ft
800 to 1500m
200 to 500 ft
< 800m
< 200 ft
Symbols :   Thunderstorms  Fog  Heavy snow  Heavy precipitations  Wind > 20 kt
SIGMETs :     Misc.  Thunderstorms  Icing  Turbulence  Mountain Waves  Volcanic Ashes







- Airport Elevation : 83 ft
- IATA code : LHR
- Download approach charts


EGLL - London Heathrow

CURRENT METAR :
  • 190120Z AUTO 21004KT 9999 NCD 15/10 Q1013

EXPIRED METARs :
  • 190050Z AUTO 22004KT 190V280 9999 NCD 15/10 Q1013
  • 190020Z AUTO 25005KT 9999 NCD 15/09 Q1013
  • 182350Z 25006KT CAVOK 16/09 Q1013
  • 182320Z AUTO 27007KT 9999 NCD 17/10 Q1013
  • 182250Z AUTO 25008KT 9999 NCD 17/09 Q1013

TAF TAF EGLL
Valid from the 19 at 00:00 until the 20 at 06:00 UTC


182255Z 1900/2006 25006KT 9999 FEW045
TEMPO 1907/2004 7000 -RA BKN010
BECMG 1908/1911 19014KT
PROB40
TEMPO 1908/1914 3000 RADZ BKN006
PROB40
TEMPO 1920/2004 2500 +RA BKN006
PROB30
TEMPO 2004/2006 6000 SHRA BKN008
No reported NOTAMs for that airfield.



MET'MAP, your aeronautical weather chart ! - Copyright ORBIFLY December 2007 - Disclaimer

ORBIFLY MET'MAP TEAM :

Programming & Development : Alexandra Zaïnal
Concept & Development : Baudouin d'Aumeries
Co-Development & Prog : Marc-Olivier Méhu
Technical & hardware support : Manuel Goepfert

Contact : metmap@orbifly.com




SOURCES & CREDITS :

   NOAA